Date,TemperatureHighF,TemperatureAvgF,TemperatureLowF,DewpointHighF,DewpointAvgF,DewpointLowF,HumidityHigh,HumidityAvg,HumidityLow,PressureMaxIn,PressureMinIn,WindSpeedMaxMPH,WindSpeedAvgMPH,GustSpeedMaxMPH,PrecipitationSumIn
2013-1-1,67.7,55.6,47.9,66.0,54.3,45.0,98,96,88,30.18,29.90,17,7,22,2.78
2013-1-2,47.7,44.6,42.0,44.0,42.2,40.0,95,91,87,30.29,30.15,15,6,18,0.02
2013-1-3,53.6,45.0,39.1,40.0,37.4,33.0,94,76,47,30.41,30.27,14,5,19,0.00
2013-1-4,48.3,45.4,42.3,38.0,36.1,34.0,76,70,61,30.51,30.34,13,6,16,0.00
2013-1-5,46.7,44.3,42.8,44.0,41.8,37.0,98,91,71,30.38,30.25,13,4,15,0.57
2013-1-6,57.4,48.2,40.6,45.0,43.2,39.0,98,84,61,30.33,30.23,18,6,19,0.00
2013-1-7,58.3,48.4,37.9,45.0,40.8,37.0,97,76,52,30.33,30.13,11,4,16,0.00
2013-1-8,63.4,58.2,52.5,62.0,55.2,45.0,96,90,72,30.13,29.98,16,6,18,0.20
2013-1-9,67.5,64.1,61.5,67.0,63.2,60.0,98,97,94,30.12,29.95,16,5,23,2.87
2013-1-10,65.3,61.8,52.4,65.0,60.7,52.0,99,96,85,30.10,29.95,11,3,16,1.21
2013-1-11,72.7,60.9,47.1,69.0,56.1,47.0,100,86,53,30.07,29.93,6,2,13,0.04
2013-1-12,76.1,71.7,69.1,71.0,69.8,69.0,99,94,84,29.96,29.77,23,8,31,0.02
2013-1-13,72.0,54.6,45.0,70.0,52.7,43.0,96,94,89,30.12,29.73,19,8,31,0.16
2013-1-14,46.0,41.4,37.9,44.0,39.3,36.0,96,92,86,30.20,30.06,20,8,29,0.01
2013-1-15,40.2,37.2,35.1,38.0,35.8,34.0,97,95,90,30.12,30.02,13,6,19,0.25
2013-1-16,45.3,37.7,32.5,38.0,35.3,32.0,98,91,75,30.25,30.09,14,4,20,0.01
2013-1-17,59.1,43.5,31.2,38.0,32.6,28.0,96,69,37,30.47,30.24,16,3,21,0.00
2013-1-18,59.8,43.5,33.3,39.0,33.4,21.0,97,73,22,30.55,30.40,10,2,12,0.00
2013-1-21,68.8,60.3,47.3,51.0,48.5,45.0,94,68,47,30.24,30.17,6,1,10,0.00
2013-1-22,67.3,51.9,40.6,50.0,44.3,38.0,97,77,47,30.36,30.24,7,2,11,0.00
2013-1-23,70.0,56.7,41.8,58.0,52.0,41.0,99,86,63,30.38,30.27,15,3,17,0.01
2013-1-24,71.0,62.6,54.1,64.0,59.6,53.0,99,90,76,30.33,30.20,12,3,15,0.00
2013-1-25,74.3,64.8,56.5,64.0,60.4,56.0,98,87,60,30.22,30.11,19,5,26,0.01
2013-1-26,74.4,63.5,54.9,66.0,59.2,54.0,99,87,63,30.23,30.14,14,2,16,0.01
2013-1-27,73.9,66.7,58.6,65.0,61.7,57.0,95,84,70,30.20,30.11,18,4,23,0.00
2013-1-28,74.6,69.8,66.3,68.0,66.1,64.0,94,88,79,30.18,30.05,15,5,21,0.00
2013-1-29,76.0,71.4,68.7,70.0,68.8,67.0,95,92,82,30.04,29.69,21,9,34,0.00
2013-1-30,71.9,54.5,38.9,70.0,39.6,28.0,95,61,32,30.23,29.70,24,7,39,0.25
2013-1-31,62.0,48.3,33.1,40.0,33.4,23.0,97,62,23,30.33,30.23,19,3,23,0.00
2013-2-1,67.6,54.2,45.0,48.0,43.8,40.0,94,71,36,30.41,30.29,10,2,13,0.00
2013-2-2,69.7,57.0,43.9,57.0,51.0,43.0,97,82,59,30.30,30.18,10,2,13,0.00
2013-2-3,70.5,57.4,48.6,55.0,42.9,30.0,98,66,23,30.33,30.10,8,2,14,0.01
2013-2-4,68.1,59.0,47.8,61.0,54.8,45.0,97,86,70,30.10,29.89,10,2,14,0.12
2013-2-5,72.7,64.7,59.1,66.0,62.0,58.0,99,92,75,30.02,29.90,10,1,10,0.44
2013-2-6,64.8,60.9,57.0,62.0,59.7,56.0,98,96,91,30.10,29.90,15,4,22,0.77
2013-2-7,70.2,62.0,57.8,63.0,59.3,57.0,98,91,77,29.99,29.87,9,2,12,0.00
2013-2-8,64.9,59.5,51.7,60.0,55.4,49.0,99,87,71,30.17,29.99,14,5,20,0.00
2013-2-9,65.9,58.5,48.3,64.0,55.3,46.0,94,89,80,30.18,29.95,9,4,17,0.00
2013-2-10,75.5,67.5,62.1,70.0,65.3,60.0,97,93,84,29.97,29.84,20,6,33,0.16
2013-2-11,63.0,55.3,51.5,62.0,54.1,50.0,97,95,89,30.12,29.95,26,8,31,1.37
2013-2-12,66.6,58.0,54.1,66.0,56.8,52.0,99,96,90,30.02,29.74,20,5,20,0.21
2013-2-13,59.3,51.8,42.4,52.0,43.7,40.0,91,75,51,30.10,29.92,21,6,26,0.03
2013-2-14,63.3,49.0,36.3,44.0,40.1,35.0,97,75,40,30.17,30.06,8,1,14,0.00
2013-2-15,66.3,52.2,38.9,47.0,41.3,38.0,98,70,36,30.28,30.11,16,4,22,0.01
2013-2-16,56.4,46.8,37.3,37.0,27.6,20.0,81,50,26,30.42,30.26,17,5,25,0.00
2013-2-17,65.9,53.3,36.3,50.0,42.2,33.0,91,68,42,30.29,30.14,18,4,24,0.00
2013-2-18,68.1,64.1,58.1,64.0,58.8,51.0,95,83,74,30.14,29.89,22,7,27,0.55
2013-2-19,65.0,56.6,47.5,56.0,39.6,30.0,93,56,28,30.25,30.02,17,6,23,0.03
2013-2-20,59.3,54.1,48.7,46.0,36.8,25.0,70,52,38,30.21,29.94,23,9,23,0.00
2013-2-21,71.5,63.9,55.0,69.0,61.1,46.0,96,91,72,29.93,29.69,18,6,26,0.05
2013-2-22,63.4,60.5,55.9,62.0,53.7,50.0,97,79,61,29.97,29.85,14,5,18,0.00
2013-2-23,68.5,57.4,49.3,52.0,48.8,46.0,88,74,49,30.00,29.89,11,4,17,0.00
2013-2-24,68.0,58.2,44.3,60.0,49.4,42.0,92,74,47,29.98,29.70,13,4,16,0.00
2013-2-25,74.6,65.0,49.9,70.0,54.3,28.0,99,74,23,29.71,29.43,19,5,29,0.01
2013-2-26,63.2,52.7,44.3,41.0,36.1,32.0,73,54,36,29.94,29.69,19,6,29,0.00
2013-2-27,73.3,56.1,44.0,52.0,41.1,32.0,89,61,24,30.12,29.93,20,4,26,0.00
2013-2-28,54.5,47.0,39.9,36.0,31.9,28.0,69,56,37,30.25,30.11,12,4,20,0.00
2013-3-1,60.2,49.2,39.8,35.0,31.1,25.0,75,53,26,30.24,30.12,17,5,28,0.00
2013-3-2,50.5,42.7,34.9,34.0,29.0,24.0,82,60,39,30.31,30.20,16,5,27,0.00
2013-3-3,60.7,46.3,30.1,46.0,32.4,23.0,92,63,27,30.31,30.08,15,3,15,0.00
2013-3-4,71.5,63.5,53.3,61.0,56.6,46.0,89,79,64,30.06,29.86,27,9,36,0.00
2013-3-5,70.1,63.4,49.7,63.0,47.5,30.0,93,61,24,30.29,29.86,17,6,30,0.00
2013-3-6,65.6,50.8,36.6,35.0,27.9,20.0,71,45,18,30.41,30.24,13,3,17,0.00
2013-3-7,64.7,53.1,41.6,45.0,36.9,32.0,88,57,31,30.34,30.21,11,2,12,0.00
2013-3-8,70.0,57.2,42.5,55.0,47.7,41.0,95,73,49,30.27,30.11,11,3,17,0.00
2013-3-9,70.8,63.9,57.7,63.0,59.7,50.0,94,86,73,30.11,29.85,13,5,29,0.00
2013-3-10,70.4,62.1,55.4,66.0,58.9,46.0,95,90,69,29.98,29.81,19,4,27,0.23
2013-3-11,59.7,50.8,41.9,45.0,35.2,30.0,80,56,36,30.10,29.96,21,5,25,0.00
2013-3-12,69.8,52.5,34.8,46.0,36.5,31.0,94,61,26,30.26,30.08,9,2,11,0.00
2013-3-13,70.0,55.3,41.6,44.0,36.4,28.0,93,56,21,30.45,30.26,14,4,21,0.00
2013-3-14,69.4,55.3,40.9,48.0,38.6,31.0,90,59,26,30.45,30.32,14,3,14,0.00
2013-3-15,73.2,59.7,44.7,59.0,52.8,44.0,97,80,52,30.32,30.09,23,5,25,0.00
2013-3-16,74.5,65.8,57.9,62.0,58.7,56.0,97,80,54,30.09,29.92,19,6,23,0.00
2013-3-17,75.9,68.4,63.1,68.0,64.7,60.0,97,88,74,29.93,29.77,16,5,25,0.00
2013-3-18,81.0,71.1,67.4,69.0,67.2,66.0,98,88,64,29.91,29.75,14,5,19,0.00
2013-3-19,77.0,66.3,55.4,66.0,51.2,42.0,91,60,44,30.01,29.91,14,7,22,0.00
2013-3-20,72.9,63.1,51.2,51.0,40.8,28.0,92,49,20,30.20,30.05,19,7,23,0.09
2013-3-21,69.3,59.9,49.9,57.0,44.6,36.0,81,58,32,30.07,29.78,19,4,23,0.00
2013-3-22,79.0,70.1,60.7,70.0,66.0,57.0,96,87,72,29.80,29.69,19,6,24,0.00
2013-3-23,74.0,70.0,67.8,70.0,68.5,67.0,98,95,85,29.77,29.58,10,3,13,0.00
2013-3-24,68.9,59.0,45.7,67.0,44.9,29.0,94,63,30,30.11,29.63,23,8,33,0.00
2013-3-25,59.8,47.9,36.9,34.0,27.3,19.0,79,49,21,30.35,30.12,18,5,23,0.00
2013-3-26,58.7,46.5,32.3,32.0,25.3,20.0,76,46,25,30.48,30.32,18,4,20,0.00
2013-3-27,64.5,51.0,36.2,43.0,37.1,31.0,86,61,35,30.43,30.25,9,2,15,0.00
2013-3-28,71.8,57.7,44.3,56.0,49.7,41.0,92,76,52,30.34,30.22,12,3,16,0.00
2013-3-29,73.3,63.6,55.0,61.0,57.5,54.0,96,82,61,30.29,30.16,18,4,22,0.00
2013-3-30,73.7,66.6,60.6,64.0,61.1,59.0,96,84,63,30.19,30.01,15,4,22,0.00
2013-3-31,77.3,64.7,57.9,68.0,62.7,57.0,98,94,71,30.02,29.89,19,6,34,0.63
2013-4-1,79.2,66.9,55.3,64.0,59.1,55.0,99,79,51,30.10,29.97,9,2,12,0.00
2013-4-2,74.7,66.5,57.9,63.0,60.3,57.0,98,82,59,30.06,29.87,12,2,16,0.03
2013-4-3,68.6,55.4,48.4,62.0,53.2,47.0,98,93,76,30.08,29.78,43,8,43,2.96
2013-4-4,51.5,48.7,46.7,47.0,45.6,44.0,97,89,79,30.15,30.01,14,6,21,0.00
2013-4-5,73.3,57.7,44.9,54.0,47.0,43.0,93,71,41,30.22,30.09,13,4,18,0.00
2013-4-6,70.2,61.3,50.6,59.0,55.2,50.0,98,82,60,30.14,30.01,13,4,22,0.00
2013-4-7,76.3,69.3,60.3,65.0,61.0,59.0,94,76,57,30.04,29.92,13,6,22,0.00
2013-4-8,77.6,71.4,66.9,67.0,65.4,64.0,93,82,64,29.94,29.86,19,7,26,0.00
2013-4-9,78.4,73.7,67.8,72.0,69.9,66.0,95,88,81,29.91,29.80,19,7,35,0.00
2013-4-10,79.0,74.2,57.0,73.0,70.4,56.0,95,88,81,29.85,29.74,22,9,34,0.07
2013-4-11,65.7,54.0,46.7,55.0,49.2,46.0,97,86,51,29.89,29.71,16,5,22,1.60
2013-4-12,76.1,60.0,45.5,53.0,47.7,42.0,98,70,30,30.02,29.87,9,2,12,0.01
2013-4-13,77.9,66.4,49.5,60.0,52.3,48.0,96,64,38,30.01,29.83,13,3,16,0.00
2013-4-14,78.0,67.7,60.6,65.0,61.7,56.0,96,82,61,29.84,29.70,10,3,13,0.13
2013-4-15,83.2,73.2,64.5,73.0,68.6,64.0,98,87,60,29.89,29.77,12,4,18,0.01
2013-4-16,79.8,75.8,73.5,74.0,72.7,72.0,95,91,82,30.00,29.88,12,5,24,0.00
2013-4-17,82.5,76.9,73.9,74.0,72.6,71.0,92,87,75,30.00,29.85,19,6,26,0.00
2013-4-18,79.2,70.2,52.4,73.0,66.6,47.0,95,88,82,30.02,29.72,26,10,30,0.24
2013-4-19,63.8,53.4,46.0,47.0,37.9,31.0,82,58,32,30.22,30.01,26,8,29,0.00
2013-4-20,69.8,55.8,39.3,49.0,40.8,36.0,94,62,31,30.28,30.11,13,3,16,0.00
2013-4-21,72.9,60.6,46.9,51.0,48.3,45.0,95,67,43,30.21,30.09,12,3,17,0.00
2013-4-22,77.7,64.4,49.8,61.0,53.8,47.0,93,71,44,30.13,29.98,9,2,14,0.00
2013-4-23,79.7,70.8,61.2,71.0,67.0,60.0,97,88,69,30.02,29.92,16,4,21,0.00
2013-4-24,73.2,62.0,51.2,71.0,56.6,50.0,96,83,63,30.22,29.92,19,8,28,0.37
2013-4-25,72.6,61.9,51.4,52.0,46.0,39.0,84,59,31,30.32,30.20,17,7,23,0.00
2013-4-26,77.1,69.7,61.8,69.0,61.3,50.0,93,75,53,30.24,30.12,13,4,16,0.00
2013-4-27,78.6,72.9,68.3,70.0,68.9,67.0,97,88,69,30.14,29.96,16,5,26,0.04
2013-4-28,79.2,71.0,64.9,69.0,65.6,63.0,97,84,62,30.04,29.90,15,3,17,0.20
2013-4-29,81.4,70.4,61.4,70.0,65.2,61.0,99,85,62,29.96,29.85,11,1,18,0.07
2013-4-30,80.1,71.8,67.2,71.0,67.9,66.0,97,88,65,29.88,29.78,13,3,19,0.31
2013-5-1,82.3,72.9,66.4,71.0,67.4,65.0,97,84,62,29.89,29.81,9,2,14,0.00
2013-5-2,75.3,66.9,55.0,66.0,63.0,51.0,98,88,72,30.08,29.88,18,6,25,0.05
2013-5-3,64.7,54.0,46.5,51.0,42.7,34.0,88,68,32,30.11,30.01,18,7,26,0.00
2013-5-4,73.7,59.9,41.8,57.0,46.3,37.0,95,66,30,30.08,29.85,19,5,25,0.00
2013-5-5,66.6,57.9,46.6,57.0,45.1,42.0,87,64,43,30.07,29.93,15,5,22,0.00
2013-5-6,77.0,62.4,46.8,57.0,50.5,45.0,95,69,41,30.09,29.96,10,2,16,0.00
2013-5-7,84.3,70.7,57.9,62.0,57.1,52.0,92,66,36,30.07,29.98,14,3,17,0.00
2013-5-8,79.9,70.4,58.8,67.0,63.2,58.0,97,80,53,30.10,30.01,13,3,16,0.00
2013-5-9,69.1,68.5,68.1,66.0,66.0,66.0,93,91,89,30.02,29.99,7,3,13,0.00
2013-5-10,75.5,71.4,67.1,66.0,64.9,63.0,95,81,68,30.02,29.93,7,3,14,4.07
2013-5-13,80.1,71.6,62.8,59.0,56.0,45.0,85,61,29,30.24,30.20,6,2,10,0.00
2013-5-14,82.8,70.0,56.7,66.0,56.3,40.0,98,68,23,30.26,30.15,15,3,18,0.00
2013-5-15,77.8,72.6,67.3,68.0,66.2,64.0,91,81,66,30.17,29.98,16,5,19,0.00
2013-5-16,79.6,75.3,70.7,70.0,68.8,67.0,91,80,68,29.97,29.88,15,6,21,0.00
2013-5-17,82.9,77.1,72.7,74.0,72.0,70.0,94,85,70,29.99,29.89,16,5,20,0.00
2013-5-18,84.6,78.5,74.6,74.0,72.7,71.0,93,83,65,30.01,29.93,16,6,20,0.00
2013-5-19,84.3,79.1,75.1,75.0,73.8,72.0,91,84,71,29.97,29.88,17,8,22,0.00
2013-5-20,85.0,80.0,76.3,76.0,74.7,72.0,89,84,73,29.96,29.84,16,7,23,0.00
2013-5-21,84.1,79.6,77.0,76.0,74.8,73.0,94,86,75,29.90,29.76,16,6,23,0.01
2013-5-22,86.2,76.7,67.9,75.0,71.7,66.0,95,85,65,29.94,29.81,18,4,23,0.03
2013-5-23,87.5,80.2,72.6,77.0,74.3,72.0,98,83,62,30.06,29.93,12,4,17,0.00
2013-5-24,87.6,79.4,72.3,76.0,73.3,68.0,97,83,62,30.14,30.02,8,2,12,0.00
2013-5-25,86.0,77.8,70.9,75.0,70.5,66.0,93,79,65,30.18,30.10,13,3,14,0.01
2013-5-26,87.5,78.8,71.1,74.0,70.2,66.0,94,76,50,30.13,30.05,17,3,18,0.00
2013-5-27,85.0,78.8,72.6,73.0,71.2,69.0,92,78,62,30.08,29.98,12,4,20,0.00
2013-5-28,85.9,79.6,75.4,73.0,71.4,67.0,88,77,61,30.02,29.93,16,6,23,0.00
2013-5-29,85.5,79.8,74.1,74.0,72.5,71.0,90,79,65,29.95,29.86,18,5,21,0.00
2013-5-30,87.8,81.4,76.3,77.0,74.7,73.0,92,81,66,29.94,29.86,18,6,26,0.00
2013-5-31,86.3,81.0,77.0,78.0,76.1,75.0,96,86,71,29.95,29.88,16,6,24,0.58
2013-6-1,88.2,82.5,78.2,77.0,76.4,75.0,93,82,68,29.93,29.87,15,6,24,0.01
2013-6-2,82.6,76.8,69.7,76.0,72.4,68.0,97,87,69,30.00,29.88,15,4,19,0.31
2013-6-3,89.0,78.5,69.1,74.0,70.8,68.0,97,79,54,29.95,29.83,9,3,14,0.00
2013-6-4,93.4,82.5,71.6,75.0,71.7,69.0,94,72,45,29.93,29.82,7,2,10,0.00
2013-6-5,92.9,82.4,75.4,79.0,75.5,73.0,94,81,54,29.90,29.77,10,3,12,0.00
2013-6-6,88.8,77.1,68.3,77.0,73.1,66.0,98,89,67,29.88,29.73,11,2,24,1.57
2013-6-7,85.2,73.5,66.6,71.0,68.1,66.0,98,85,57,29.92,29.84,9,2,12,0.00
2013-6-8,86.3,75.3,66.6,74.0,69.9,62.0,96,84,62,29.94,29.86,22,2,32,0.98
2013-6-9,89.6,76.5,70.7,77.0,71.9,68.0,97,86,66,29.97,29.86,11,2,19,0.03
2013-6-10,89.5,79.1,70.7,78.0,74.0,70.0,98,85,64,30.00,29.95,9,2,15,0.03
2013-6-11,91.6,86.6,79.7,77.0,75.7,74.0,89,71,57,30.05,29.99,13,5,14,0.00
2013-6-12,92.9,84.0,75.3,78.0,75.9,73.0,97,78,56,30.08,29.99,11,3,15,0.00
2013-6-13,95.2,84.8,75.4,78.0,75.6,72.0,97,76,50,30.07,29.91,10,2,13,0.00
2013-6-14,95.4,84.2,73.6,79.0,76.7,70.0,96,80,55,29.97,29.85,10,3,24,0.17
2013-6-15,95.6,83.0,73.8,80.0,75.1,71.0,96,78,55,30.00,29.91,10,3,17,0.00
2013-6-16,92.7,84.3,76.8,77.0,75.0,72.0,93,75,52,30.05,29.95,11,3,15,0.00
2013-6-17,91.3,83.6,75.6,78.0,75.0,72.0,95,77,55,30.01,29.91,14,4,19,0.00
2013-6-18,89.4,80.9,72.7,77.0,74.4,70.0,96,82,60,30.00,29.89,17,4,18,0.45
2013-6-19,84.7,77.4,73.1,77.0,73.9,69.0,98,89,75,30.02,29.94,8,1,22,0.59
2013-6-20,93.8,81.2,74.1,79.0,75.2,71.0,98,84,50,30.10,30.00,12,1,16,0.15
2013-6-21,90.8,79.7,74.5,79.0,75.2,70.0,98,88,61,30.12,30.05,16,1,20,0.46
2013-6-24,91.8,85.7,78.9,78.0,75.8,74.0,88,73,59,30.10,30.01,12,4,21,0.13
2013-6-25,91.5,83.8,75.6,78.0,75.4,72.0,94,77,57,30.07,29.97,13,3,16,0.00
2013-6-26,93.0,84.9,78.6,78.0,75.9,73.0,91,76,57,30.03,29.95,12,4,18,0.00
2013-6-27,96.3,84.8,74.9,78.0,75.2,71.0,97,75,45,30.03,29.93,9,2,14,0.00
2013-6-28,95.1,85.2,77.4,79.0,76.4,74.0,95,77,52,29.98,29.79,12,4,15,0.00
2013-6-29,98.6,87.8,78.5,78.0,74.6,69.0,91,67,45,29.82,29.68,12,4,18,0.00
2013-6-30,93.2,83.9,72.0,70.0,65.4,57.0,82,57,32,29.84,29.75,14,3,21,0.00
2013-7-1,86.4,78.4,67.9,69.0,65.5,62.0,85,66,48,29.93,29.84,9,3,13,0.00
2013-7-2,90.2,79.4,68.2,69.0,65.6,60.0,89,65,38,30.00,29.93,11,3,13,0.00
2013-7-3,89.8,80.9,69.2,69.0,65.2,62.0,86,61,39,30.03,29.92,13,4,14,0.00
2013-7-4,91.1,80.4,68.4,72.0,67.1,61.0,93,67,38,29.98,29.90,13,3,15,0.00
2013-7-5,92.3,81.3,71.9,74.0,70.6,67.0,89,72,43,29.98,29.90,13,4,18,0.00
2013-7-6,91.5,80.3,72.2,76.0,73.1,70.0,94,80,55,29.96,29.89,15,4,17,0.00
2013-7-7,89.0,80.3,77.2,79.0,75.6,74.0,94,86,65,30.04,29.92,11,3,18,0.15
2013-7-8,91.3,82.0,76.4,78.0,75.9,74.0,95,83,61,30.13,30.02,10,3,16,0.00
2013-7-9,96.4,84.7,76.2,79.0,75.9,71.0,97,77,49,30.16,30.06,11,2,17,0.00
2013-7-10,92.1,84.5,75.9,78.0,75.4,73.0,94,76,55,30.10,29.97,15,4,17,0.00
2013-7-11,93.1,83.0,77.1,77.0,74.9,71.0,94,78,51,30.01,29.90,11,3,18,0.00
2013-7-12,95.6,83.8,76.1,77.0,74.3,69.0,91,75,50,29.97,29.86,8,2,19,0.00
2013-7-13,93.8,84.0,73.5,75.0,66.3,57.0,90,59,31,29.96,29.86,9,3,13,0.00
2013-7-14,91.0,81.4,73.4,75.0,70.1,65.0,89,70,51,29.97,29.89,7,2,11,0.05
2013-7-15,88.0,81.3,74.0,76.0,73.5,68.0,93,78,52,30.09,29.93,11,4,18,0.13
2013-7-16,86.2,79.6,74.5,77.0,74.3,72.0,94,84,63,30.14,30.05,17,4,17,0.08
2013-7-17,91.8,80.3,73.8,77.0,74.5,72.0,95,84,54,30.20,30.11,15,4,18,0.13
2013-7-18,94.1,80.0,72.6,76.0,72.3,69.0,97,80,46,30.15,30.00,11,3,18,0.09
2013-7-19,88.0,76.5,71.8,75.0,72.2,70.0,97,88,58,30.07,29.96,10,2,16,0.93
2013-7-20,89.9,79.0,71.7,77.0,73.1,71.0,98,84,54,29.99,29.89,9,2,14,0.11
2013-7-21,85.2,79.0,73.8,77.0,74.5,73.0,97,87,71,30.02,29.94,19,4,27,0.48
2013-7-22,91.7,84.0,78.7,80.0,77.6,76.0,96,82,63,30.05,29.98,19,5,21,0.00
2013-7-23,91.2,83.6,78.0,79.0,76.9,74.0,96,81,61,30.05,29.92,15,6,19,0.00
2013-7-24,92.0,83.7,76.2,78.0,76.1,74.0,95,79,56,30.01,29.88,16,4,18,0.00
2013-7-25,93.2,84.6,79.0,79.0,77.1,75.0,94,80,57,30.05,29.94,9,3,13,0.01
2013-7-26,93.7,84.1,76.8,78.0,76.4,74.0,97,79,56,30.06,29.93,13,4,19,0.00
2013-7-27,89.3,83.3,78.0,78.0,76.1,73.0,93,80,61,29.96,29.86,12,5,21,0.01
2013-7-28,88.1,80.6,75.4,78.0,75.3,73.0,92,84,71,30.00,29.91,13,4,19,0.00
2013-7-29,93.4,84.0,75.3,78.0,75.4,70.0,98,78,48,30.10,29.99,13,3,16,0.00
2013-7-30,93.9,83.4,73.9,78.0,73.4,66.0,98,75,41,30.15,30.05,12,3,14,0.00
2013-7-31,94.8,83.4,74.6,78.0,75.1,73.0,96,78,51,30.10,29.96,12,3,17,0.00
2013-8-1,96.4,85.7,77.0,79.0,75.7,72.0,95,75,47,30.03,29.90,8,3,12,0.00
2013-8-2,96.8,85.8,77.7,79.0,76.2,74.0,94,75,49,30.00,29.92,13,3,17,0.00
2013-8-3,95.6,85.9,78.4,78.0,76.2,73.0,94,75,50,30.06,29.98,10,3,16,0.00
2013-8-4,93.1,85.3,78.3,79.0,77.2,74.0,95,78,58,30.09,29.99,15,3,15,0.00
2013-8-5,95.6,85.6,78.0,79.0,76.2,71.0,95,76,46,30.06,29.94,15,4,16,0.00
2013-8-6,94.9,85.7,78.3,79.0,77.2,73.0,94,77,50,29.99,29.90,14,5,22,0.00
2013-8-7,96.2,85.5,78.0,79.0,76.6,73.0,96,77,47,29.98,29.87,14,4,20,0.00
2013-8-8,95.7,84.7,76.1,79.0,75.0,69.0,97,75,45,29.96,29.87,10,2,17,0.00
2013-8-9,96.4,85.3,75.9,79.0,76.7,74.0,95,77,49,30.00,29.89,10,2,16,0.01
2013-8-10,92.6,81.0,76.6,78.0,76.1,71.0,97,86,55,30.05,29.96,15,2,26,0.06
2013-8-11,91.5,82.7,74.9,80.0,76.0,74.0,98,81,58,30.08,30.01,12,3,21,0.04
2013-8-12,90.8,83.5,76.7,80.0,77.2,75.0,96,82,65,30.09,29.98,8,2,16,0.00
2013-8-13,96.6,86.0,78.6,80.0,76.9,73.0,96,76,47,30.04,29.91,13,4,21,0.00
2013-8-14,90.9,81.2,75.6,79.0,76.3,74.0,97,86,57,30.00,29.93,11,3,18,0.20
2013-8-15,87.0,77.8,71.3,76.0,73.0,68.0,98,86,64,30.03,29.91,10,3,13,0.47
2013-8-16,91.0,81.2,71.2,74.0,69.8,65.0,93,71,44,29.99,29.91,10,3,16,0.00
2013-8-17,90.3,79.1,67.4,69.0,66.1,62.0,90,67,40,30.00,29.90,13,4,17,0.00
2013-8-18,92.0,81.1,70.7,73.0,69.3,65.0,96,70,42,30.02,29.95,12,3,18,0.00
2013-8-19,92.4,81.5,70.7,73.0,69.3,63.0,92,69,38,30.05,29.94,10,3,14,0.00
2013-8-20,81.9,76.4,72.8,77.0,73.5,71.0,96,91,80,30.06,29.97,5,1,11,0.11
2013-8-21,91.2,81.6,71.7,77.0,74.5,71.0,98,80,58,30.09,30.00,9,3,15,0.01
2013-8-22,93.0,83.6,74.7,77.0,74.5,70.0,95,76,48,30.08,29.95,14,3,15,0.00
2013-8-23,95.1,84.7,74.9,77.0,74.6,72.0,95,74,48,30.01,29.88,9,3,21,0.00
2013-8-24,91.7,82.4,73.7,77.0,73.2,71.0,95,75,53,30.05,29.96,17,6,23,0.00
2013-8-25,85.1,78.8,75.1,77.0,74.3,72.0,94,86,72,30.13,30.03,15,6,20,0.18
2013-8-26,82.8,76.4,73.6,75.0,73.7,72.0,96,91,78,30.15,30.07,16,4,17,0.74
2013-8-27,91.1,80.5,71.4,74.0,71.7,68.0,98,77,47,30.13,30.02,7,2,12,0.01
2013-8-28,94.9,83.2,73.1,77.0,73.2,70.0,96,74,45,30.09,29.98,8,2,11,0.00
2013-8-29,93.3,83.6,76.5,77.0,75.1,71.0,95,77,50,30.07,29.96,8,2,13,0.00
2013-8-30,93.1,83.1,74.2,76.0,73.9,72.0,95,76,52,30.04,29.91,8,2,12,0.00
2013-8-31,93.0,83.1,74.0,77.0,73.6,70.0,97,75,48,29.98,29.86,12,3,18,0.00
2013-9-1,94.4,83.3,74.4,78.0,74.4,71.0,96,77,48,29.95,29.85,12,3,16,0.00
2013-9-2,95.0,83.6,75.8,79.0,75.7,68.0,96,79,49,29.99,29.85,15,3,17,0.00
2013-9-3,96.6,83.6,77.2,78.0,75.3,70.0,93,78,44,29.98,29.88,8,2,16,0.01
2013-9-4,94.9,83.0,74.5,79.0,75.1,73.0,95,78,52,30.05,29.94,12,2,18,0.00
2013-9-5,93.0,81.6,75.3,78.0,75.0,74.0,96,82,55,30.09,30.00,8,2,19,0.00
2013-9-6,92.0,82.5,74.0,77.0,74.8,72.0,95,79,53,30.09,29.97,11,3,14,0.00
2013-9-7,90.5,79.5,74.5,76.0,73.4,71.0,96,83,57,30.05,29.95,15,2,20,0.04
2013-9-8,93.6,81.2,70.3,76.0,72.2,67.0,97,77,42,30.00,29.90,9,2,13,0.00
2013-9-9,91.4,81.7,72.4,76.0,72.9,69.0,97,77,51,30.02,29.94,10,2,16,0.00
2013-9-10,92.7,81.7,73.1,76.0,73.0,70.0,96,77,48,30.09,29.99,16,3,20,0.25
2013-9-11,92.4,80.9,72.8,78.0,73.4,67.0,97,81,46,30.10,30.00,12,2,18,0.14
2013-9-12,94.7,82.1,72.4,75.0,71.8,64.0,96,75,38,30.05,29.90,13,3,16,0.01
2013-9-13,96.7,83.1,73.5,76.0,71.8,67.0,94,72,39,29.95,29.80,10,3,15,0.00
2013-9-14,90.0,80.0,73.7,78.0,73.1,70.0,93,81,59,29.95,29.86,10,3,16,0.01
2013-9-15,92.1,81.8,73.1,76.0,73.6,71.0,94,78,55,30.02,29.93,10,3,19,0.00
2013-9-16,92.9,83.1,73.0,77.0,73.9,69.0,96,76,46,30.05,29.97,11,3,15,0.00
2013-9-17,95.6,82.5,73.1,78.0,73.8,70.0,96,77,45,30.07,29.94,10,3,23,0.07
2013-9-18,93.5,82.7,74.4,77.0,73.9,68.0,95,77,46,30.02,29.92,10,3,19,0.00
2013-9-19,90.0,80.9,76.8,78.0,75.9,74.0,95,85,64,30.00,29.89,14,4,21,0.56
2013-9-20,79.6,76.5,73.5,79.0,75.6,73.0,99,97,95,29.93,29.75,16,3,22,8.51
2013-9-21,74.0,72.3,71.0,74.0,71.5,70.0,99,97,90,29.80,29.72,17,4,21,2.04
2013-9-22,81.7,73.8,65.4,69.0,62.0,57.0,94,68,44,29.84,29.75,19,7,20,0.00
2013-9-23,88.0,77.6,66.0,77.0,68.2,59.0,88,73,60,29.82,29.74,15,5,15,0.00
2013-9-24,89.9,82.3,74.5,79.0,75.8,73.0,97,82,60,29.84,29.77,12,3,17,0.00
2013-9-25,92.7,78.9,68.9,74.0,64.7,47.0,98,69,21,29.87,29.78,11,2,18,0.00
2013-9-26,92.5,78.3,66.1,73.0,67.0,59.0,96,73,36,29.94,29.82,6,1,9,0.00
2013-9-27,90.4,79.4,69.4,74.0,69.6,64.0,98,75,44,29.99,29.91,11,2,12,0.00
2013-9-28,89.4,81.4,74.4,74.0,71.8,69.0,88,74,54,30.03,29.94,12,3,20,0.00
2013-9-29,84.4,76.9,72.0,74.0,72.1,69.0,97,86,61,30.00,29.92,13,2,21,0.93
2013-9-30,78.3,74.2,72.1,76.0,73.1,71.0,98,97,90,29.93,29.84,18,2,28,1.76
2013-10-1,87.1,77.7,72.5,77.0,74.1,72.0,99,89,70,29.98,29.89,14,3,17,0.02
2013-10-2,87.3,78.7,73.4,76.0,73.7,72.0,97,85,64,30.02,29.92,13,3,15,0.00
2013-10-3,88.9,80.5,74.8,77.0,73.5,66.0,98,81,48,29.99,29.90,11,3,15,0.00
2013-10-4,89.5,80.6,74.6,79.0,75.3,74.0,97,85,64,29.96,29.90,15,3,19,0.00
2013-10-5,89.4,80.1,73.8,78.0,75.4,73.0,97,86,64,29.95,29.84,8,3,13,0.00
2013-10-6,76.6,68.6,61.2,75.0,59.5,50.0,96,75,44,30.03,29.88,18,6,24,0.00
2013-10-7,77.0,64.4,53.4,56.0,52.3,49.0,90,67,42,30.11,30.01,12,3,15,0.00
2013-10-8,77.4,65.0,53.9,60.0,56.0,52.0,94,75,49,30.10,30.00,9,1,12,0.00
2013-10-9,80.7,67.4,54.8,62.0,58.1,54.0,96,75,46,30.10,30.01,5,1,10,0.00
2013-10-10,83.1,70.1,58.2,68.0,63.1,57.0,97,80,54,30.09,29.97,10,1,10,0.01
2013-10-11,86.1,74.5,63.8,75.0,70.1,63.0,98,87,66,30.01,29.92,9,2,13,0.03
2013-10-12,88.6,79.0,70.6,78.0,74.0,68.0,98,86,64,30.11,29.94,11,3,20,0.16
2013-10-13,80.5,73.4,68.6,74.0,70.8,68.0,99,92,79,30.16,30.03,9,3,13,0.00
2013-10-14,85.6,76.3,70.9,74.0,70.9,70.0,97,85,61,30.11,29.98,9,2,10,0.00
2013-10-15,85.5,77.0,69.7,73.0,70.8,69.0,98,82,59,30.02,29.91,10,2,15,0.00
2013-10-16,83.6,75.8,69.8,74.0,71.0,68.0,98,86,66,29.97,29.89,9,2,11,0.00
2013-10-17,71.3,66.4,59.4,68.0,63.6,59.0,97,91,77,30.06,29.95,10,3,14,0.00
2013-10-18,71.8,63.6,55.9,62.0,58.3,55.0,99,84,59,30.04,29.89,14,3,17,0.01
2013-10-19,65.2,60.8,52.5,62.0,57.8,51.0,98,90,75,30.08,29.93,16,4,20,0.48
2013-10-20,74.4,59.2,46.5,58.0,52.4,46.0,98,81,46,30.11,29.97,7,1,10,0.01
2013-10-21,73.5,64.1,55.3,67.0,60.7,53.0,96,89,76,30.05,29.93,8,2,12,0.02
2013-10-22,69.3,63.9,53.9,66.0,60.8,52.0,98,90,73,30.07,29.96,13,3,17,0.00
2013-10-23,78.8,62.7,49.6,57.0,52.3,48.0,98,74,36,30.14,30.06,11,1,12,0.00
2013-10-24,56.7,53.8,51.9,54.0,52.5,51.0,97,95,92,30.19,30.12,0,0,2,0.00
2013-10-31,66.7,64.5,61.6,66.0,63.9,61.0,99,98,98,29.89,29.79,3,1,7,2.90
2013-11-1,78.3,65.1,57.6,62.0,58.3,52.0,99,82,41,29.96,29.84,7,1,7,0.01
2013-11-2,70.0,61.3,50.8,61.0,49.4,38.0,96,69,32,30.22,29.94,19,5,28,0.05
2013-11-3,64.9,54.2,44.4,49.0,45.5,43.0,95,75,48,30.25,30.12,12,2,16,0.00
2013-11-4,75.3,64.8,49.7,61.0,56.1,48.0,95,74,59,30.16,30.08,13,5,20,0.00
2013-11-5,78.7,70.1,63.5,71.0,66.0,61.0,95,87,72,30.11,30.02,12,5,19,0.08
2013-11-6,72.7,68.7,67.8,71.0,67.6,67.0,97,97,94,30.09,30.04,13,3,13,0.17
2013-11-7,64.5,57.2,49.3,46.0,44.4,42.0,84,64,45,30.36,30.27,21,8,22,0.00
2013-11-8,64.0,53.5,44.5,49.0,43.7,39.0,91,72,40,30.38,30.20,13,3,19,0.00
2013-11-9,67.8,57.8,48.1,53.0,48.3,44.0,93,73,44,30.25,30.16,7,2,11,0.00
2013-11-10,73.1,61.2,50.5,60.0,53.9,48.0,90,78,59,30.29,30.19,11,3,15,0.00
2013-11-11,73.9,60.8,50.3,58.0,54.1,49.0,95,80,54,30.26,30.14,6,1,9,0.00
2013-11-12,71.6,55.1,41.0,57.0,48.9,31.0,96,80,58,30.56,30.21,24,7,35,0.01
2013-11-13,55.6,42.7,32.7,33.0,29.2,24.0,82,62,32,30.60,30.43,16,6,19,0.00
2013-11-14,60.7,47.3,32.5,48.0,38.7,30.0,91,74,41,30.42,30.12,6,1,8,0.00
2013-11-15,78.2,63.0,50.9,63.0,57.1,47.0,98,82,59,30.11,29.94,5,1,9,0.00
2013-11-16,78.1,71.3,63.9,72.0,69.0,63.0,99,93,82,29.99,29.86,15,4,20,0.00
2013-11-17,81.2,75.5,72.4,76.0,73.7,72.0,99,94,83,29.95,29.84,13,5,19,0.02
2013-11-18,76.4,70.6,59.9,74.0,56.1,42.0,99,65,30,30.12,29.95,19,5,24,0.00
2013-11-19,66.0,58.2,51.4,44.0,41.0,34.0,72,53,35,30.19,30.06,17,6,21,0.00
2013-11-20,72.8,59.9,44.7,59.0,45.1,34.0,88,60,38,30.10,29.98,9,3,14,0.00
2013-11-21,77.2,68.3,60.6,72.0,65.9,58.0,97,92,79,30.14,30.04,8,3,16,0.00
2013-11-22,73.4,68.4,57.3,72.0,67.2,56.0,99,96,90,30.21,30.10,13,4,18,0.03
2013-11-23,57.5,51.2,43.9,57.0,49.1,38.0,99,92,81,30.39,30.19,19,9,26,0.01
2013-11-24,51.2,43.9,38.5,38.0,32.2,29.0,80,64,44,30.44,30.30,17,8,24,0.00
2013-11-25,41.7,39.7,38.0,41.0,36.8,32.0,98,90,67,30.31,29.97,15,7,20,1.93
2013-11-26,41.8,40.3,38.9,40.0,39.3,38.0,98,96,94,30.20,29.91,19,6,21,0.67
2013-11-27,48.3,39.6,32.5,40.0,33.4,30.0,97,80,50,30.44,30.20,13,4,18,0.00
2013-11-28,49.2,37.5,30.2,35.0,31.2,29.0,96,80,50,30.52,30.40,6,1,8,0.01
2013-11-29,60.2,41.8,28.8,38.0,32.2,28.0,97,74,34,30.54,30.41,7,1,9,0.00
2013-11-30,66.6,48.6,32.7,46.0,39.1,31.0,97,73,41,30.43,30.25,7,1,7,0.01
2013-12-1,68.8,56.0,40.6,58.0,49.5,40.0,97,81,53,30.27,29.98,8,2,12,0.00
2013-12-2,75.8,66.7,61.6,65.0,62.3,58.0,96,87,66,29.98,29.71,13,5,22,0.00
2013-12-3,75.9,68.4,63.4,68.0,66.3,63.0,99,93,76,29.77,29.67,17,7,29,0.00
2013-12-4,75.0,70.2,67.5,72.0,69.5,67.0,99,97,90,29.87,29.75,11,5,16,0.00
2013-12-5,76.8,68.4,51.7,73.0,67.0,51.0,99,95,87,29.98,29.85,10,5,20,0.04
2013-12-6,51.9,44.3,38.6,51.0,42.8,36.0,99,95,88,30.32,29.94,20,8,27,0.03
2013-12-7,38.6,36.2,34.5,36.0,33.4,32.0,93,89,86,30.38,30.27,19,8,24,0.00
2013-12-8,44.6,38.8,34.2,44.0,38.0,32.0,98,96,92,30.27,30.06,9,3,10,0.33
2013-12-9,45.6,43.8,39.4,45.0,43.0,39.0,98,97,95,30.25,30.05,12,6,19,0.12
2013-12-10,48.7,40.6,36.7,39.0,36.2,34.0,97,85,64,30.42,30.25,17,7,26,0.00
2013-12-11,47.4,41.9,33.9,42.0,37.5,32.0,94,85,75,30.49,30.35,8,3,13,0.00
2013-12-12,53.0,42.8,35.1,39.0,35.3,32.0,91,76,51,30.55,30.36,14,4,16,0.00
2013-12-13,64.1,50.8,38.0,64.0,44.4,31.0,98,79,65,30.35,29.88,10,4,18,0.27
2013-12-14,64.9,56.7,44.7,64.0,52.7,39.0,98,87,69,30.22,29.85,25,6,25,0.02
2013-12-15,53.3,43.3,35.3,39.0,35.9,33.0,95,76,53,30.34,30.22,17,5,26,0.00
2013-12-16,60.4,44.1,30.7,45.0,37.4,30.0,98,81,46,30.36,30.25,11,1,11,0.00
2013-12-17,70.4,49.6,33.9,51.0,42.4,33.0,99,81,38,30.35,30.24,7,1,14,0.01
2013-12-18,61.1,43.0,38.2,57.0,42.3,38.0,99,97,77,30.35,30.29,1,0,4,0.01
2013-12-19,71.4,68.0,59.9,66.0,62.3,57.0,94,82,69,30.10,29.95,14,7,27,0.00
2013-12-20,73.1,69.9,66.3,70.0,68.1,65.0,96,94,89,29.99,29.85,19,7,27,0.00
2013-12-21,73.2,68.2,57.2,72.0,67.0,57.0,99,96,91,29.85,29.61,18,7,29,0.72
2013-12-22,61.5,55.5,41.6,60.0,53.4,37.0,100,93,82,30.29,29.82,14,3,19,0.02
2013-12-23,50.1,40.8,34.9,37.0,33.8,32.0,88,77,51,30.53,30.28,14,6,21,0.00
2013-12-24,53.7,40.3,28.8,37.0,32.5,28.0,96,76,45,30.58,30.35,13,2,16,0.00
2013-12-25,54.7,43.2,31.2,40.0,35.3,30.0,96,76,47,30.42,30.32,7,1,9,0.00
2013-12-26,59.2,47.2,35.7,43.0,38.4,32.0,95,74,43,30.43,30.29,9,2,12,0.00
2013-12-27,52.2,48.2,44.4,41.0,38.6,36.0,81,70,55,30.45,30.31,10,3,14,0.00
2013-12-28,52.8,46.9,39.3,44.0,40.4,37.0,96,78,69,30.30,30.04,6,2,8,0.00
2013-12-29,64.7,48.5,33.9,46.0,39.2,33.0,98,74,35,30.16,30.03,7,0,8,0.00
2013-12-30,48.3,45.9,41.3,45.0,41.1,38.0,89,83,78,30.38,30.13,11,3,16,0.00
2013-12-31,49.0,43.9,39.4,40.0,38.0,37.0,92,80,63,30.43,30.28,10,3,12,0.00
2014-1-1,61.0,52.1,44.7,55.0,48.8,38.0,97,89,73,30.29,30.04,6,2,10,0.10
2014-1-2,56.4,48.0,36.2,56.0,38.5,27.0,98,71,45,30.43,30.03,21,7,30,0.17